Terminal Aerodrome Forecast
Issued by NWS

Home | Current Version | Previous Version | Text Only | Print | Product List | Glossary On
Versions: 1 2 3 4 5 6 7 8 9 10 11 12 13 14 15 16 17 18 19
164
FTUS44 KCRP 261734
TAFALI
TAF
KALI 261734Z 2618/2718 18006KT P6SM SKC
     FM262100 14010KT P6SM FEW070
     FM270200 16007KT P6SM SKC
     FM271000 17004KT 5SM BR SCT012
      TEMPO 2710/2713 3SM BR BKN012
     FM271400 21008KT P6SM SKC=

USA.gov is the U.S. government's official web portal to all federal, state and local government web resources and services.